Time;durP1;ratioP1;P1;durP2;ratioP2;P2;SDS_P1;SDS_P2;PMS_P1;PMS_P2;Temp;Humidity;BMP_temperature;BMP_pressure;BME280_temperature;BME280_humidity;BME280_pressure;Samples;Min_cycle;Max_cycle;Signal;HPM_P1;HPM_P2
2022/08/05 00:01:19;;;;;;;7.25;2.58;;;;;;;16.78;95.65;101711.34;5114183;28;20028;-71
2022/08/05 00:03:45;;;;;;;6.50;2.60;;;;;;;16.73;95.71;101713.66;5116128;28;20031;-72
2022/08/05 00:06:11;;;;;;;9.63;2.75;;;;;;;16.69;96.19;101731.94;5115741;28;20039;-72
2022/08/05 00:08:37;;;;;;;6.78;2.45;;;;;;;16.69;96.82;101728.41;5115826;28;20036;-71
2022/08/05 00:11:09;;;;;;;8.27;2.40;;;;;;;16.68;97.32;101726.72;5114151;28;20411;-71
2022/08/05 00:13:36;;;;;;;7.63;2.40;;;;;;;16.69;97.54;101728.41;5115451;28;20028;-71
2022/08/05 00:16:02;;;;;;;7.20;2.60;;;;;;;16.70;97.78;101738.16;5115003;27;20519;-71
2022/08/05 00:18:28;;;;;;;13.00;3.17;;;;;;;16.72;97.62;101741.53;5114968;28;20047;-72
2022/08/05 00:20:54;;;;;;;6.85;2.50;;;;;;;16.73;97.74;101732.47;5115135;28;20089;-71
2022/08/05 00:23:20;;;;;;;8.27;2.95;;;;;;;16.74;97.54;101745.72;5115273;28;20032;-71
2022/08/05 00:25:46;;;;;;;5.85;2.95;;;;;;;16.77;97.38;101741.91;5115064;28;20402;-71
2022/08/05 00:28:12;;;;;;;8.00;2.65;;;;;;;16.80;96.83;101748.81;5115341;28;20031;-70
2022/08/05 00:30:37;;;;;;;11.02;2.70;;;;;;;16.82;96.97;101746.78;5115024;28;20156;-72
2022/08/05 00:33:03;;;;;;;5.80;2.83;;;;;;;16.85;96.73;101746.47;5096786;28;20027;-72
2022/08/05 00:35:28;;;;;;;6.47;2.45;;;;;;;16.84;96.61;101742.09;5115111;28;20034;-73
2022/08/05 00:37:53;;;;;;;8.90;2.70;;;;;;;16.86;96.74;101742.81;5115583;28;20024;-72
2022/08/05 00:40:21;;;;;;;14.15;3.97;;;;;;;16.84;96.63;101751.03;5115099;28;20072;-71
2022/08/05 00:42:47;;;;;;;7.95;2.80;;;;;;;16.85;96.68;101747.31;5114778;28;20035;-71
2022/08/05 00:45:12;;;;;;;8.52;3.10;;;;;;;16.82;97.17;101744.09;5115143;28;20039;-72
2022/08/05 00:47:39;;;;;;;6.70;2.78;;;;;;;16.80;96.80;101741.59;5114881;28;20028;-72
2022/08/05 00:50:05;;;;;;;7.47;3.00;;;;;;;16.78;96.83;101745.41;5114714;28;20058;-71
2022/08/05 00:52:30;;;;;;;10.75;2.83;;;;;;;16.72;96.63;101728.09;5113212;28;20484;-71
2022/08/05 00:54:56;;;;;;;7.90;2.55;;;;;;;16.67;97.12;101727.72;5114335;28;20114;-71
2022/08/05 00:57:21;;;;;;;7.95;2.53;;;;;;;16.64;97.31;101741.47;5114611;28;20054;-71
2022/08/05 00:59:48;;;;;;;11.43;2.50;;;;;;;16.59;97.81;101736.56;5114307;28;20085;-71
2022/08/05 01:02:13;;;;;;;5.68;2.45;;;;;;;16.56;97.96;101740.41;5114438;28;20066;-71
2022/08/05 01:04:39;;;;;;;8.95;2.53;;;;;;;16.53;97.96;101743.41;5112940;28;20067;-71
2022/08/05 01:07:04;;;;;;;6.32;2.80;;;;;;;16.50;98.32;101737.53;5114578;28;20131;-71
2022/08/05 01:09:30;;;;;;;7.03;2.58;;;;;;;16.50;98.88;101737.53;5114038;28;20085;-71
2022/08/05 01:11:59;;;;;;;6.30;2.45;;;;;;;16.49;98.68;101743.88;5114142;28;20043;-71
2022/08/05 01:14:25;;;;;;;7.75;2.40;;;;;;;16.46;98.39;101744.19;5114728;28;20024;-71
2022/08/05 01:17:04;;;;;;;8.95;2.47;;;;;;;16.45;98.69;101756.78;5114107;28;20384;-71
2022/08/05 01:19:39;;;;;;;6.60;2.38;;;;;;;16.45;98.66;101758.59;5114392;28;20054;-71
2022/08/05 01:22:44;;;;;;;4.10;2.22;;;;;;;16.45;98.83;101770.22;5113982;28;20457;-71
2022/08/05 01:25:34;;;;;;;7.20;2.15;;;;;;;16.46;98.72;101763.00;5095897;28;20053;-71
2022/08/05 01:28:24;;;;;;;6.15;2.80;;;;;;;16.44;99.05;101760.47;5114208;28;20027;-72
2022/08/05 01:31:06;;;;;;;7.10;2.60;;;;;;;16.44;98.76;101767.69;5114083;28;20024;-71
2022/08/05 01:33:38;;;;;;;5.68;2.50;;;;;;;16.44;98.73;101773.91;5114217;28;20032;-72
2022/08/05 01:36:10;;;;;;;5.50;2.35;;;;;;;16.45;98.80;101777.41;5113667;28;20492;-72
2022/08/05 01:38:36;;;;;;;9.05;2.60;;;;;;;16.43;98.58;101791.00;5113503;28;20051;-74
2022/08/05 01:41:04;;;;;;;12.45;2.70;;;;;;;16.41;99.09;101793.00;5114175;28;20446;-71
2022/08/05 01:43:31;;;;;;;9.10;2.70;;;;;;;16.40;98.65;101791.31;5114004;28;20421;-71
2022/08/05 01:45:57;;;;;;;5.88;2.30;;;;;;;16.39;98.60;101785.09;5113654;28;20038;-72
2022/08/05 01:48:30;;;;;;;5.25;2.20;;;;;;;16.36;98.83;101782.72;5113645;28;20127;-71
2022/08/05 01:50:56;;;;;;;5.93;2.33;;;;;;;16.33;99.08;101780.34;5112638;28;20078;-71
2022/08/05 01:53:23;;;;;;;8.68;2.25;;;;;;;16.27;99.43;101772.06;5113580;28;20028;-72
2022/08/05 01:55:51;;;;;;;7.13;2.53;;;;;;;16.22;100.00;101786.78;5113498;28;20152;-72
2022/08/05 01:58:18;;;;;;;10.05;2.70;;;;;;;16.14;100.00;101781.34;5113567;28;20032;-72
2022/08/05 02:00:49;;;;;;;6.40;3.22;;;;;;;16.09;100.00;101780.09;5113392;28;20032;-72
2022/08/05 02:03:26;;;;;;;6.75;2.33;;;;;;;16.01;100.00;101765.59;5113056;28;20028;-72
2022/08/05 02:05:53;;;;;;;5.70;2.20;;;;;;;15.97;100.00;101774.97;5113364;28;20036;-72
2022/08/05 02:08:19;;;;;;;8.57;2.53;;;;;;;15.91;100.00;101772.88;5113434;28;20030;-71
2022/08/05 02:10:52;;;;;;;7.47;2.50;;;;;;;15.86;100.00;101769.81;5112987;28;20048;-72
2022/08/05 02:13:24;;;;;;;4.93;2.40;;;;;;;15.82;100.00;101765.75;5113105;28;20160;-72
2022/08/05 02:15:55;;;;;;;8.48;2.47;;;;;;;15.78;100.00;101761.66;5113173;28;20121;-71
2022/08/05 02:18:29;;;;;;;11.20;2.95;;;;;;;15.76;100.00;101751.03;5113150;28;20055;-71
2022/08/05 02:21:10;;;;;;;6.38;2.58;;;;;;;15.72;100.00;101752.38;5112809;28;20065;-71
2022/08/05 02:23:37;;;;;;;;;;;;;;;15.69;100.00;101760.72;5113572;28;20039;-71
2022/08/05 02:26:07;;;;;;;3.95;2.20;;;;;;;15.65;100.00;101749.44;5113120;28;20317;-72
2022/08/05 02:28:36;;;;;;;7.63;2.47;;;;;;;15.62;100.00;101744.38;5113183;28;20097;-71
2022/08/05 02:31:09;;;;;;;3.88;2.22;;;;;;;15.58;100.00;101742.97;5112747;28;20073;-71
2022/08/05 02:33:41;;;;;;;4.35;2.13;;;;;;;15.57;100.00;101743.13;5113412;28;20065;-71
2022/08/05 02:36:12;;;;;;;;;;;;;;;15.56;100.00;101746.81;5114168;28;20112;-71
2022/08/05 02:38:40;;;;;;;10.77;3.42;;;;;;;15.52;100.00;101740.88;5113063;28;20006;-71
2022/08/05 02:41:08;;;;;;;4.93;2.17;;;;;;;15.48;100.00;101743.03;5113110;28;20035;-71
2022/08/05 02:43:36;;;;;;;8.65;2.70;;;;;;;15.43;100.00;101745.31;5112982;28;20034;-71
2022/08/05 02:46:03;;;;;;;5.68;2.30;;;;;;;15.43;100.00;101744.47;5112961;28;20028;-71
2022/08/05 02:48:29;;;;;;;7.22;2.70;;;;;;;15.41;100.00;101741.94;5113041;28;20034;-71
2022/08/05 02:50:58;;;;;;;6.20;2.67;;;;;;;15.38;100.00;101741.41;5112875;28;20031;-71
2022/08/05 02:53:23;;;;;;;5.15;2.42;;;;;;;15.37;100.00;101735.19;5112941;28;20055;-71
2022/08/05 02:55:51;;;;;;;7.03;2.83;;;;;;;15.37;100.00;101740.53;5112822;28;20055;-72
2022/08/05 02:58:20;;;;;;;5.47;2.55;;;;;;;15.34;100.00;101736.31;5112877;28;20377;-72
2022/08/05 03:00:46;;;;;;;6.72;2.88;;;;;;;15.33;100.00;101748.06;5112936;28;20031;-73
2022/08/05 03:03:19;;;;;;;8.32;2.58;;;;;;;15.31;100.00;101747.34;5113397;28;20047;-71
2022/08/05 03:05:46;;;;;;;8.25;2.65;;;;;;;15.29;100.00;101757.38;5112504;28;20024;-71
2022/08/05 03:08:13;;;;;;;5.78;2.70;;;;;;;15.26;100.00;101757.69;5113087;28;20467;-71
2022/08/05 03:10:42;;;;;;;5.50;2.65;;;;;;;15.23;100.00;101762.50;5112724;28;20032;-71
2022/08/05 03:13:15;;;;;;;5.55;2.60;;;;;;;15.19;100.00;101769.97;5112818;28;20035;-71
2022/08/05 03:15:45;;;;;;;8.18;2.80;;;;;;;15.14;100.00;101765.06;5115797;28;20481;-71
2022/08/05 03:18:11;;;;;;;8.40;2.60;;;;;;;15.07;100.00;101766.63;5115872;28;20493;-71
2022/08/05 03:20:37;;;;;;;7.15;2.53;;;;;;;15.03;100.00;101773.25;5116718;28;20077;-71
2022/08/05 03:23:08;;;;;;;6.38;2.50;;;;;;;14.99;100.00;101767.34;5116448;28;20028;-71
2022/08/05 03:25:35;;;;;;;6.20;2.40;;;;;;;14.96;100.00;101767.66;5116468;28;20051;-72
2022/08/05 03:28:03;;;;;;;6.95;2.72;;;;;;;14.91;100.00;101766.38;5116003;28;20509;-71
2022/08/05 03:30:33;;;;;;;7.30;2.47;;;;;;;14.88;100.00;101772.88;5115959;28;20032;-71
2022/08/05 03:32:59;;;;;;;6.65;2.40;;;;;;;14.84;100.00;101779.53;5116677;28;20059;-71
2022/08/05 03:35:26;;;;;;;9.80;2.92;;;;;;;14.81;100.00;101787.88;5116108;27;20062;-71
2022/08/05 03:37:58;;;;;;;6.65;2.70;;;;;;;14.77;100.00;101786.44;5115717;28;20027;-71
2022/08/05 03:40:24;;;;;;;5.50;2.30;;;;;;;14.72;100.00;101786.88;5115969;28;20031;-71
2022/08/05 03:42:50;;;;;;;6.15;2.20;;;;;;;14.68;100.00;101781.97;5115785;27;20436;-71
2022/08/05 03:45:15;;;;;;;6.30;2.08;;;;;;;14.62;100.00;101784.22;5116382;28;20027;-71
2022/08/05 03:47:40;;;;;;;6.97;2.40;;;;;;;14.57;100.00;101781.09;5115999;28;20032;-71
2022/08/05 03:50:06;;;;;;;9.77;2.60;;;;;;;14.50;100.00;101766.56;5115824;28;20114;-71
2022/08/05 03:52:34;;;;;;;7.38;2.67;;;;;;;14.42;100.00;101774.47;5114844;28;20067;-72
2022/08/05 03:55:06;;;;;;;4.35;2.35;;;;;;;14.35;100.00;101784.91;5116265;28;20083;-72
2022/08/05 03:57:34;;;;;;;6.25;2.50;;;;;;;14.28;100.00;101784.59;5115947;28;20027;-72
2022/08/05 04:00:05;;;;;;;5.60;2.30;;;;;;;14.23;100.00;101783.34;5115526;28;20059;-71
2022/08/05 04:02:33;;;;;;;5.50;2.15;;;;;;;14.14;100.00;101774.31;5115543;28;20079;-71
2022/08/05 04:05:01;;;;;;;4.82;2.35;;;;;;;14.06;100.00;101767.00;5115540;28;20057;-71
2022/08/05 04:07:27;;;;;;;6.15;2.55;;;;;;;14.00;100.00;101772.06;5115431;28;20028;-71
2022/08/05 04:09:53;;;;;;;4.60;2.38;;;;;;;13.93;100.00;101772.59;5115121;28;20035;-71
2022/08/05 04:12:19;;;;;;;6.85;2.67;;;;;;;13.90;100.00;101774.72;5116144;28;20055;-71
2022/08/05 04:14:45;;;;;;;6.07;2.70;;;;;;;13.83;100.00;101774.41;5115098;28;20504;-71
2022/08/05 04:17:11;;;;;;;5.38;2.70;;;;;;;13.78;100.00;101775.81;5115217;28;20039;-71
2022/08/05 04:19:43;;;;;;;9.98;2.90;;;;;;;13.73;100.00;101771.75;5115791;28;20510;-71
2022/08/05 04:22:08;;;;;;;4.68;2.40;;;;;;;13.69;100.00;101767.63;5115252;27;20023;-71
2022/08/05 04:24:34;;;;;;;6.82;2.40;;;;;;;13.68;100.00;101770.44;5115135;28;20179;-72
2022/08/05 04:26:59;;;;;;;7.80;2.92;;;;;;;13.66;100.00;101772.41;5114997;28;20106;-72
2022/08/05 04:29:24;;;;;;;3.90;2.20;;;;;;;13.63;100.00;101770.00;5115107;28;20042;-72
2022/08/05 04:31:50;;;;;;;7.55;2.70;;;;;;;13.60;100.00;101772.94;5115594;28;20070;-72
2022/08/05 04:34:15;;;;;;;4.05;2.30;;;;;;;13.56;100.00;101775.91;5113954;28;20061;-71
2022/08/05 04:36:40;;;;;;;8.10;2.65;;;;;;;13.55;100.00;101776.03;5114927;28;20036;-71
2022/08/05 04:39:06;;;;;;;7.00;2.83;;;;;;;13.51;100.00;101767.44;5114994;28;20031;-72
2022/08/05 04:41:31;;;;;;;7.07;2.80;;;;;;;13.49;100.00;101774.75;5114580;27;20042;-72
2022/08/05 04:43:57;;;;;;;2.88;2.10;;;;;;;13.46;100.00;101775.00;5115604;28;20051;-71
2022/08/05 04:46:22;;;;;;;2.92;2.22;;;;;;;13.43;100.00;101766.44;5114754;27;20063;-72
2022/08/05 04:48:47;;;;;;;7.68;2.60;;;;;;;13.43;100.00;101777.94;5114695;28;20066;-71
2022/08/05 04:51:13;;;;;;;7.70;2.45;;;;;;;13.37;100.00;101763.28;5114314;27;20057;-71
2022/08/05 04:53:39;;;;;;;5.70;2.20;;;;;;;13.37;100.00;101771.31;5115228;28;20369;-72
2022/08/05 04:56:08;;;;;;;5.03;2.45;;;;;;;13.36;100.00;101772.31;5114433;28;20462;-71
2022/08/05 04:58:33;;;;;;;8.57;2.20;;;;;;;13.36;100.00;101766.09;5114725;28;20085;-71
2022/08/05 05:00:59;;;;;;;5.28;2.38;;;;;;;13.37;100.00;101765.13;5114704;28;20044;-71
2022/08/05 05:03:24;;;;;;;3.22;2.03;;;;;;;13.36;100.00;101769.66;5114656;28;20024;-71
2022/08/05 05:05:49;;;;;;;7.07;2.60;;;;;;;13.40;100.00;101770.22;5114418;28;20354;-71
2022/08/05 05:08:15;;;;;;;4.55;2.53;;;;;;;13.43;100.00;101779.78;5115060;28;20387;-70
2022/08/05 05:10:43;;;;;;;6.50;2.63;;;;;;;13.46;100.00;101782.19;5114811;28;20059;-70
2022/08/05 05:13:10;;;;;;;7.18;2.40;;;;;;;13.48;100.00;101783.75;5114319;28;20027;-70
2022/08/05 05:15:36;;;;;;;6.18;2.42;;;;;;;13.55;100.00;101789.41;5114207;28;20485;-71
2022/08/05 05:18:02;;;;;;;4.32;2.30;;;;;;;13.58;100.00;101794.47;5113870;28;20083;-72
2022/08/05 05:20:27;;;;;;;5.93;2.45;;;;;;;13.66;100.00;101794.66;5114963;28;20555;-72
2022/08/05 05:22:53;;;;;;;3.90;2.08;;;;;;;13.73;100.00;101790.47;5114022;28;20031;-70
2022/08/05 05:25:18;;;;;;;4.07;2.17;;;;;;;13.83;100.00;101786.97;5114538;28;20032;-70
2022/08/05 05:27:44;;;;;;;4.82;2.00;;;;;;;13.91;100.00;101785.28;5113805;28;20169;-71
2022/08/05 05:30:10;;;;;;;4.15;1.98;;;;;;;14.00;100.00;101786.28;5113786;28;20443;-71
2022/08/05 05:32:35;;;;;;;5.75;2.25;;;;;;;14.05;100.00;101789.38;5114076;28;20034;-71
2022/08/05 05:35:01;;;;;;;5.05;2.17;;;;;;;14.10;100.00;101792.47;5113833;28;20066;-72
2022/08/05 05:37:26;;;;;;;8.15;1.92;;;;;;;14.17;100.00;101794.63;5113176;28;20039;-72
2022/08/05 05:39:51;;;;;;;5.55;1.67;;;;;;;14.33;100.00;101802.94;5113676;28;20035;-72
2022/08/05 05:42:17;;;;;;;3.85;1.80;;;;;;;14.59;100.00;101813.09;5113794;28;20032;-72
2022/08/05 05:44:42;;;;;;;5.55;1.75;;;;;;;14.88;100.00;101813.06;5113650;28;20038;-72
2022/08/05 05:47:07;;;;;;;2.40;1.40;;;;;;;15.16;100.00;101813.16;5113676;28;20038;-73
2022/08/05 05:49:33;;;;;;;3.75;1.35;;;;;;;15.34;100.00;101810.56;5113694;28;20042;-71
2022/08/05 05:51:58;;;;;;;7.05;1.60;;;;;;;15.46;100.00;101816.56;5114349;28;20037;-71
2022/08/05 05:54:23;;;;;;;3.20;1.35;;;;;;;15.50;99.85;101816.13;5113580;28;20388;-72
2022/08/05 05:56:49;;;;;;;3.38;1.45;;;;;;;15.54;99.58;101815.84;5113589;28;20063;-71
2022/08/05 05:59:14;;;;;;;4.82;1.65;;;;;;;15.55;99.45;101817.53;5113067;28;20036;-72
2022/08/05 06:01:41;;;;;;;4.18;1.42;;;;;;;15.57;99.70;101818.22;5113937;28;20032;-72
2022/08/05 06:04:08;;;;;;;4.82;1.58;;;;;;;15.60;99.73;101820.59;5113232;28;20035;-72
2022/08/05 06:06:34;;;;;;;2.88;1.30;;;;;;;15.62;99.96;101819.47;5113422;28;20050;-72
2022/08/05 06:08:59;;;;;;;2.97;1.20;;;;;;;15.68;99.26;101820.72;5113350;28;20406;-72
2022/08/05 06:11:24;;;;;;;3.75;1.52;;;;;;;15.76;98.82;101815.44;5113305;28;20036;-71
2022/08/05 06:13:50;;;;;;;4.15;1.45;;;;;;;15.84;98.58;101823.63;5113391;28;20408;-71
2022/08/05 06:16:15;;;;;;;5.85;1.40;;;;;;;15.92;98.47;101819.38;5113317;28;20457;-71
2022/08/05 06:18:41;;;;;;;4.07;1.23;;;;;;;16.01;98.72;101819.28;5113269;28;20400;-71
2022/08/05 06:21:06;;;;;;;2.63;1.30;;;;;;;16.11;96.84;101818.38;5113303;28;20032;-71
2022/08/05 06:23:31;;;;;;;2.95;1.20;;;;;;;16.22;96.03;101823.53;5112942;28;20495;-72
2022/08/05 06:25:57;;;;;;;3.30;1.27;;;;;;;16.34;94.93;101825.00;5113207;28;20429;-71
2022/08/05 06:28:22;;;;;;;2.40;1.20;;;;;;;16.45;93.85;101821.25;5113222;28;20119;-73
2022/08/05 06:30:48;;;;;;;4.35;1.38;;;;;;;16.58;93.01;101826.22;5113196;28;20024;-73
2022/08/05 06:33:13;;;;;;;7.32;1.30;;;;;;;16.72;90.67;101831.06;5113057;28;20032;-72
2022/08/05 06:35:38;;;;;;;4.90;1.75;;;;;;;16.84;90.78;101830.78;5113324;28;20119;-71
2022/08/05 06:38:04;;;;;;;3.08;1.02;;;;;;;16.97;89.08;101830.41;5112850;28;20397;-72
2022/08/05 06:40:29;;;;;;;5.55;1.23;;;;;;;17.12;88.42;101844.13;5113183;28;20028;-71
2022/08/05 06:42:54;;;;;;;9.05;1.52;;;;;;;17.23;87.46;101841.19;5113422;28;20031;-71
2022/08/05 06:45:23;;;;;;;3.90;1.00;;;;;;;17.37;85.70;101835.19;5111335;28;20032;-72
2022/08/05 06:47:48;;;;;;;7.35;1.30;;;;;;;17.52;83.98;101835.44;5112979;28;20032;-71
2022/08/05 06:50:14;;;;;;;2.05;1.00;;;;;;;17.67;82.04;101835.69;5117118;28;20119;-73
2022/08/05 06:52:39;;;;;;;4.07;0.90;;;;;;;17.90;80.67;101845.91;5117114;28;20084;-72
2022/08/05 06:55:05;;;;;;;3.50;0.75;;;;;;;18.17;77.44;101844.81;5117269;28;20036;-72
2022/08/05 06:57:31;;;;;;;2.38;0.90;;;;;;;18.50;76.78;101848.38;5116885;28;20161;-70
2022/08/05 06:59:56;;;;;;;4.03;1.00;;;;;;;18.95;74.73;101843.53;5116928;28;20110;-72
2022/08/05 07:02:22;;;;;;;2.25;0.90;;;;;;;19.37;71.70;101849.69;5116432;28;20032;-72
2022/08/05 07:04:47;;;;;;;5.15;1.00;;;;;;;19.69;70.15;101847.91;5117202;28;20036;-72
2022/08/05 07:07:12;;;;;;;3.28;1.00;;;;;;;19.69;67.46;101847.91;5116867;28;20032;-72
2022/08/05 07:09:38;;;;;;;1.52;0.88;;;;;;;19.77;68.43;101858.69;5117301;27;20046;-73
2022/08/05 07:12:03;;;;;;;1.05;0.90;;;;;;;19.74;67.11;101856.34;5116684;28;20517;-72
2022/08/05 07:17:13;;;;;;;4.00;0.77;;;;;;;19.83;66.82;101863.41;5117228;28;20100;-72
2022/08/05 07:19:38;;;;;;;3.15;1.00;;;;;;;19.83;64.84;101868.81;5117149;28;20403;-72
2022/08/05 07:22:04;;;;;;;2.97;0.60;;;;;;;19.84;64.73;101877.75;5116431;27;20044;-71
2022/08/05 07:24:29;;;;;;;4.25;0.93;;;;;;;19.72;64.54;101877.25;5116199;28;20364;-72
2022/08/05 07:26:55;;;;;;;1.83;0.90;;;;;;;19.67;62.95;101879.63;5115993;28;20070;-71
2022/08/05 07:29:20;;;;;;;2.13;1.00;;;;;;;19.61;64.65;101886.56;5115809;28;20444;-71
2022/08/05 07:31:45;;;;;;;2.53;0.82;;;;;;;19.52;66.38;101893.84;5115971;28;20501;-73
2022/08/05 07:34:11;;;;;;;1.83;1.13;;;;;;;19.41;65.56;101891.53;5116169;28;20032;-72
2022/08/05 07:36:36;;;;;;;4.00;1.20;;;;;;;19.33;66.45;101891.53;5116462;28;20020;-72
2022/08/05 07:39:04;;;;;;;4.85;1.00;;;;;;;19.36;65.88;101905.53;5116058;28;20055;-71
2022/08/05 07:41:30;;;;;;;4.45;1.02;;;;;;;19.38;66.21;101906.19;5116042;28;20028;-73
2022/08/05 07:43:57;;;;;;;3.03;0.98;;;;;;;19.38;67.18;101908.06;5116029;28;20035;-72
2022/08/05 07:46:27;;;;;;;4.43;1.08;;;;;;;19.16;67.54;101915.84;5116138;28;20457;-73
2022/08/05 07:48:58;;;;;;;3.40;1.10;;;;;;;19.08;69.08;101917.69;5115297;28;20051;-72
2022/08/05 07:51:24;;;;;;;;;;;;;;;18.96;69.55;101926.13;5116298;28;20380;-72
2022/08/05 07:53:49;;;;;;;4.68;1.27;;;;;;;18.77;68.77;101931.81;5115809;28;20006;-72
2022/08/05 07:56:15;;;;;;;2.47;1.23;;;;;;;18.58;68.11;101932.97;5115564;28;20024;-72
2022/08/05 07:58:41;;;;;;;1.20;0.85;;;;;;;18.44;69.63;101940.66;5115372;28;20110;-71
2022/08/05 08:01:06;;;;;;;2.20;1.10;;;;;;;18.23;69.91;101938.44;5113738;28;20538;-72
2022/08/05 08:03:31;;;;;;;2.25;0.90;;;;;;;18.10;68.87;101938.03;5115235;27;20031;-72
2022/08/05 08:05:57;;;;;;;3.22;0.88;;;;;;;17.98;70.42;101945.56;5114981;28;20056;-71
2022/08/05 08:08:22;;;;;;;4.03;1.00;;;;;;;17.88;68.57;101953.72;5115186;28;20036;-71
2022/08/05 08:10:48;;;;;;;3.85;0.95;;;;;;;17.76;69.67;101963.91;5113581;28;20397;-72
2022/08/05 08:13:13;;;;;;;3.55;1.00;;;;;;;17.63;69.43;101956.28;5115143;28;20106;-71
2022/08/05 08:15:38;;;;;;;3.13;1.10;;;;;;;17.55;69.59;101956.22;5115196;28;20031;-72
2022/08/05 08:18:04;;;;;;;5.10;1.00;;;;;;;17.48;69.60;101960.56;5114621;28;20457;-71
2022/08/05 08:20:29;;;;;;;4.50;1.15;;;;;;;17.43;69.71;101965.53;5115219;28;20357;-72
2022/08/05 08:23:01;;;;;;;6.45;1.17;;;;;;;17.36;69.75;101964.47;5114544;28;20393;-73
2022/08/05 08:25:27;;;;;;;8.73;1.20;;;;;;;17.31;69.93;101962.25;5115190;28;20036;-73
2022/08/05 08:27:53;;;;;;;5.80;1.00;;;;;;;17.25;69.24;101969.09;5115200;28;20121;-71
2022/08/05 08:30:18;;;;;;;3.63;0.80;;;;;;;17.20;68.23;101967.91;5115088;28;20042;-73
2022/08/05 08:32:44;;;;;;;12.25;1.10;;;;;;;17.20;67.59;101970.59;5114733;28;20389;-71
2022/08/05 08:35:09;;;;;;;20.58;1.27;;;;;;;17.22;69.20;101976.66;5113999;28;20070;-72
2022/08/05 08:37:35;;;;;;;36.60;2.45;;;;;;;17.23;68.92;101971.13;5114869;28;20024;-71
2022/08/05 08:40:00;;;;;;;16.40;0.95;;;;;;;17.25;69.80;101985.25;5114598;28;20039;-71
2022/08/05 08:42:26;;;;;;;31.63;2.15;;;;;;;17.26;68.52;101994.16;5114996;28;20453;-71
2022/08/05 08:44:53;;;;;;;7.20;1.52;;;;;;;17.30;68.92;101995.53;5114847;28;20460;-70
2022/08/05 08:47:23;;;;;;;31.25;1.60;;;;;;;17.34;70.01;101999.59;5115030;28;20027;-74
2022/08/05 08:49:54;;;;;;;15.98;2.03;;;;;;;17.36;69.26;101994.06;5114821;28;20027;-73
2022/08/05 08:52:25;;;;;;;2.22;0.88;;;;;;;17.38;68.24;101998.31;5115609;27;20084;-72
2022/08/05 08:54:51;;;;;;;2.05;0.50;;;;;;;17.41;67.20;102005.22;5114654;28;20071;-73
2022/08/05 08:57:17;;;;;;;7.97;1.30;;;;;;;17.44;67.39;102004.91;5115154;28;20096;-72
2022/08/05 08:59:43;;;;;;;3.00;0.80;;;;;;;17.49;66.97;102012.50;5113200;28;20039;-73
2022/08/05 09:02:09;;;;;;;3.80;1.05;;;;;;;17.51;67.90;102019.44;5114439;28;20026;-76
2022/08/05 09:04:36;;;;;;;2.83;0.73;;;;;;;17.56;67.61;102010.88;5114484;27;20031;-75
2022/08/05 09:07:06;;;;;;;3.58;0.70;;;;;;;17.56;67.84;102016.28;5114847;28;20149;-74
2022/08/05 09:09:35;;;;;;;2.38;0.70;;;;;;;17.60;67.46;102023.00;5114519;27;20043;-73
2022/08/05 09:12:07;;;;;;;4.80;0.80;;;;;;;17.62;66.17;102018.31;5114324;28;20038;-73
2022/08/05 09:14:34;;;;;;;3.53;0.70;;;;;;;17.66;66.39;102026.91;5114866;28;20031;-73
2022/08/05 09:17:00;;;;;;;2.20;0.80;;;;;;;17.69;66.48;102030.16;5114626;28;20035;-73
2022/08/05 09:19:25;;;;;;;4.55;0.70;;;;;;;17.74;66.25;102032.38;5113757;28;20131;-74
2022/08/05 09:21:50;;;;;;;4.72;0.82;;;;;;;17.77;66.00;102029.38;5114210;28;20110;-75
2022/08/05 09:24:16;;;;;;;9.05;1.08;;;;;;;17.78;66.77;102034.59;5114126;28;20361;-72
2022/08/05 09:26:47;;;;;;;3.42;1.00;;;;;;;17.81;66.22;102038.81;5114089;27;20122;-74
2022/08/05 09:29:13;;;;;;;1.70;0.73;;;;;;;17.80;66.42;102046.03;5114300;28;20023;-74
2022/08/05 09:31:38;;;;;;;3.92;1.00;;;;;;;17.79;66.77;102040.81;5113807;28;20073;-75
2022/08/05 09:34:08;;;;;;;2.50;1.13;;;;;;;17.75;66.93;102052.88;5113587;28;20465;-74
2022/08/05 09:36:42;;;;;;;3.45;0.70;;;;;;;17.68;65.17;102050.00;5114243;28;20024;-74
2022/08/05 09:39:10;;;;;;;2.45;0.70;;;;;;;17.70;65.72;102056.06;5114105;28;20053;-75
2022/08/05 09:41:59;;;;;;;3.78;0.85;;;;;;;17.72;65.10;102055.88;5113952;28;20484;-75
2022/08/05 09:44:40;;;;;;;3.28;0.85;;;;;;;17.75;64.29;102058.28;5114500;28;20077;-75
2022/08/05 09:47:16;;;;;;;6.40;0.98;;;;;;;17.82;65.64;102067.41;5113822;28;20461;-72
2022/08/05 09:49:43;;;;;;;0.95;0.70;;;;;;;17.89;66.85;102064.94;5113701;28;20038;-73
2022/08/05 09:52:21;;;;;;;4.97;1.02;;;;;;;17.94;68.29;102065.34;5113739;28;20031;-72
2022/08/05 09:54:57;;;;;;;7.13;0.98;;;;;;;17.93;68.12;102066.38;5113464;28;20378;-73
2022/08/05 09:57:44;;;;;;;7.28;0.98;;;;;;;17.94;68.20;102068.03;5114401;28;20374;-72
2022/08/05 10:00:15;;;;;;;1.55;0.68;;;;;;;17.89;67.35;102067.63;5113911;28;20032;-71
2022/08/05 10:02:41;;;;;;;;;;;;;;;17.84;64.39;102075.31;5114170;28;20031;-73
2022/08/05 10:05:14;;;;;;;1.95;0.70;;;;;;;17.82;64.77;102078.19;5113280;28;19907;-71
2022/08/05 10:07:53;;;;;;;0.73;0.50;;;;;;;17.82;65.00;102088.13;5113379;28;20027;-72
2022/08/05 10:10:23;;;;;;;1.55;0.70;;;;;;;17.83;65.63;102084.44;5113361;28;20034;-71
2022/08/05 10:12:52;;;;;;;2.72;0.60;;;;;;;17.87;66.29;102085.78;5113723;28;20042;-73
2022/08/05 10:15:35;;;;;;;3.10;0.80;;;;;;;17.86;65.20;102079.56;5112434;28;20031;-71
2022/08/05 10:18:08;;;;;;;3.28;0.70;;;;;;;17.85;60.02;102072.47;5113731;28;20072;-71
2022/08/05 10:20:45;;;;;;;1.65;0.75;;;;;;;17.89;59.66;102084.66;5114161;28;20444;-72
2022/08/05 10:23:19;;;;;;;4.00;1.42;;;;;;;17.96;61.19;102088.41;5113245;28;20058;-71
2022/08/05 10:25:45;;;;;;;3.15;0.70;;;;;;;18.02;61.16;102086.09;5113456;28;20073;-72
2022/08/05 10:28:10;;;;;;;6.07;0.93;;;;;;;18.11;61.88;102082.47;5113341;28;20469;-72
2022/08/05 10:30:37;;;;;;;1.83;0.73;;;;;;;18.31;63.92;102088.47;5113654;28;20480;-72
2022/08/05 10:33:03;;;;;;;3.30;0.90;;;;;;;18.56;62.37;102089.44;5113414;28;20035;-75
2022/08/05 10:35:30;;;;;;;9.70;0.90;;;;;;;18.85;62.08;102088.19;5113243;28;20024;-78
2022/08/05 10:37:59;;;;;;;5.07;0.70;;;;;;;19.25;62.03;102092.03;5113132;28;20054;-74
2022/08/05 10:40:32;;;;;;;1.15;0.60;;;;;;;19.70;62.42;102088.00;5113717;28;20032;-76
2022/08/05 10:43:08;;;;;;;2.33;1.10;;;;;;;20.15;59.57;102090.34;5113201;28;20024;-77
2022/08/05 10:45:34;;;;;;;2.63;0.80;;;;;;;20.47;57.59;102093.97;5112121;28;20077;-77
2022/08/05 10:48:29;;;;;;;2.17;0.80;;;;;;;20.89;54.32;102100.94;5113226;28;20032;-77
2022/08/05 10:51:04;;;;;;;2.60;0.63;;;;;;;21.34;52.31;102093.06;5113031;28;20465;-78
2022/08/05 10:53:40;;;;;;;3.30;0.80;;;;;;;21.96;49.38;102100.16;5113272;28;20073;-75
2022/08/05 10:56:13;;;;;;;3.95;0.70;;;;;;;22.66;47.02;102098.94;5113282;28;20442;-78
2022/08/05 10:59:09;;;;;;;1.30;0.60;;;;;;;22.88;45.58;102105.22;5113109;28;20464;-80
2022/08/05 11:01:35;;;;;;;5.93;0.73;;;;;;;22.87;44.40;102111.72;5112570;28;20071;-79
2022/08/05 11:04:24;;;;;;;2.05;0.90;;;;;;;22.83;44.62;102115.00;5112982;28;20110;-77
2022/08/05 11:07:05;;;;;;;1.90;0.85;;;;;;;22.74;47.28;102116.97;5112855;28;20036;-80
2022/08/05 11:09:42;;;;;;;2.75;0.95;;;;;;;22.53;46.95;102120.44;5112994;28;20081;-80
2022/08/05 11:12:23;;;;;;;1.23;0.70;;;;;;;22.31;46.37;102127.59;5113511;28;20071;-81
2022/08/05 11:15:26;;;;;;;1.85;0.70;;;;;;;22.12;47.85;102124.41;5113017;28;20032;-82
2022/08/05 11:17:53;;;;;;;2.33;0.90;;;;;;;22.30;48.33;102123.22;5112748;28;20031;-82
2022/08/05 11:20:36;;;;;;;2.83;0.70;;;;;;;22.53;47.27;102136.72;5113560;28;20028;-80
2022/08/05 11:23:28;;;;;;;2.35;0.80;;;;;;;22.49;47.45;102138.13;5112977;28;20024;-76
2022/08/05 11:26:21;;;;;;;2.53;0.55;;;;;;;22.23;47.41;102135.81;5113330;28;20034;-78
2022/08/05 11:28:47;;;;;;;2.63;0.70;;;;;;;22.25;46.47;102139.19;5110042;28;20067;-77
2022/08/05 11:31:13;;;;;;;2.47;0.70;;;;;;;22.54;45.90;102147.38;5112717;28;20031;-77